Time;durP1;ratioP1;P1;durP2;ratioP2;P2;SDS_P1;SDS_P2;PMS_P1;PMS_P2;Temp;Humidity;BMP_temperature;BMP_pressure;BME280_temperature;BME280_humidity;BME280_pressure;Samples;Min_cycle;Max_cycle;Signal;HPM_P1;HPM_P2
2022/01/12 00:02:18;;;;;;;77.10;39.90;;;;;;;-5.97;99.17;100853.52;103784;1278;1003704;-77
2022/01/12 00:04:46;;;;;;;75.10;37.70;;;;;;;-5.93;99.09;100856.02;104720;1277;61250;-78
2022/01/12 00:07:13;;;;;;;71.90;36.00;;;;;;;-5.91;99.09;100853.98;104719;1278;75693;-78
2022/01/12 00:09:39;;;;;;;64.10;33.10;;;;;;;-5.87;99.13;100851.86;104593;1278;69381;-78
2022/01/12 00:12:06;;;;;;;64.80;32.50;;;;;;;-5.82;99.12;100851.66;104487;1276;61351;-78
2022/01/12 00:14:33;;;;;;;59.70;30.50;;;;;;;-5.78;99.11;100854.02;104531;1277;61428;-78
2022/01/12 00:16:59;;;;;;;57.00;28.60;;;;;;;-5.77;99.08;100851.98;104543;1277;61358;-80
2022/01/12 00:19:29;;;;;;;54.80;28.10;;;;;;;-5.77;99.10;100857.35;104682;1271;75371;-77
2022/01/12 00:21:56;;;;;;;58.20;29.50;;;;;;;-5.76;99.02;100859.30;105222;1271;70196;-76
2022/01/12 00:24:40;;;;;;;59.40;29.60;;;;;;;-5.71;99.05;100858.38;105243;1271;74195;-78
2022/01/12 00:35:25;;;;;;;64.50;28.60;;;;;;;-5.55;98.94;100863.02;105223;1271;69326;-77
2022/01/12 00:37:51;;;;;;;57.10;26.90;;;;;;;-5.51;98.84;100866.77;105105;1271;73351;-77
2022/01/12 00:40:18;;;;;;;51.30;28.90;;;;;;;-5.46;98.93;100864.10;105152;1271;61360;-77
2022/01/12 00:42:45;;;;;;;54.00;26.80;;;;;;;-5.45;98.75;100861.73;105211;1271;61421;-77
2022/01/12 00:45:11;;;;;;;51.60;27.90;;;;;;;-5.40;98.82;100863.23;104975;1271;75400;-75
2022/01/12 00:47:38;;;;;;;50.90;26.20;;;;;;;-5.37;98.84;100862.48;105206;1271;69834;-80
2022/01/12 00:50:06;;;;;;;59.50;31.10;;;;;;;-5.33;98.72;100857.02;105187;1271;61205;-78
2022/01/12 00:52:32;;;;;;;53.90;29.00;;;;;;;-5.30;98.67;100859.02;104619;1271;61376;-76
2022/01/12 00:54:59;;;;;;;58.40;29.00;;;;;;;-5.27;98.64;100852.85;105223;1271;61388;-77
2022/01/12 00:57:25;;;;;;;58.20;30.70;;;;;;;-5.24;98.51;100851.20;105219;1271;61147;-76
2022/01/12 00:59:52;;;;;;;58.70;33.30;;;;;;;-5.21;98.53;100854.73;105126;1269;61377;-77
2022/01/12 01:02:18;;;;;;;67.10;34.70;;;;;;;-5.18;98.61;100856.73;104916;1271;73124;-77
2022/01/12 01:04:45;;;;;;;67.50;34.30;;;;;;;-5.16;98.54;100856.77;105169;1269;61324;-77
2022/01/12 01:07:12;;;;;;;65.20;35.70;;;;;;;-5.12;98.62;100853.77;105247;1271;61254;-77
2022/01/12 01:09:44;;;;;;;64.90;37.00;;;;;;;-5.09;98.58;100855.60;105027;1271;225887;-77
2022/01/12 01:12:11;;;;;;;66.60;34.90;;;;;;;-5.04;98.47;100857.27;104492;1271;1003587;-77
2022/01/12 01:15:15;;;;;;;69.30;36.20;;;;;;;-5.03;98.37;100856.94;105197;1271;61157;-77
2022/01/12 01:25:43;;;;;;;67.20;34.10;;;;;;;-4.98;98.37;100858.48;104912;1271;69061;-78
2022/01/12 01:28:11;;;;;;;66.10;34.90;;;;;;;-4.94;98.21;100855.11;105215;1271;74432;-77
2022/01/12 01:30:40;;;;;;;67.50;35.70;;;;;;;-4.92;98.19;100858.96;105119;1271;61382;-77
2022/01/12 01:33:09;;;;;;;63.80;35.50;;;;;;;-4.90;98.20;100859.55;105216;1271;61276;-77
2022/01/12 01:35:40;;;;;;;66.20;34.20;;;;;;;-4.87;98.18;100859.30;105296;1271;76958;-77
2022/01/12 01:38:07;;;;;;;62.50;34.60;;;;;;;-4.86;98.17;100858.44;105210;1271;69107;-79
2022/01/12 01:40:37;;;;;;;54.50;28.80;;;;;;;-4.86;98.08;100857.21;105111;1270;73407;-77
2022/01/12 01:53:55;;;;;;;54.70;30.10;;;;;;;-4.97;98.16;100854.86;105214;1271;72647;-78
2022/01/12 01:56:21;;;;;;;62.20;30.90;;;;;;;-4.97;98.10;100852.79;105205;1271;61320;-78
2022/01/12 01:58:49;;;;;;;49.20;25.80;;;;;;;-4.96;98.11;100853.67;105152;1271;61190;-79
2022/01/12 02:01:16;;;;;;;60.40;31.90;;;;;;;-4.97;98.07;100858.67;105070;1271;76445;-76
2022/01/12 02:03:43;;;;;;;58.20;30.60;;;;;;;-4.97;98.11;100855.73;105238;1271;69190;-78
2022/01/12 02:06:11;;;;;;;53.40;30.00;;;;;;;-4.98;98.03;100855.01;105280;1271;73215;-78
2022/01/12 02:08:39;;;;;;;56.60;30.30;;;;;;;-4.98;98.11;100855.88;105317;1271;61236;-78
2022/01/12 02:11:15;;;;;;;62.80;36.10;;;;;;;-4.97;98.22;100853.31;105242;1271;61206;-77
2022/01/12 02:13:59;;;;;;;56.90;31.80;;;;;;;-4.98;98.36;100855.34;105211;1271;75379;-76
2022/01/12 02:16:48;;;;;;;49.80;30.60;;;;;;;-4.98;98.37;100854.66;105168;1271;69432;-77
2022/01/12 02:19:31;;;;;;;62.00;31.80;;;;;;;-4.97;98.33;100851.05;105066;1271;73335;-78
2022/01/12 02:35:52;;;;;;;50.90;27.10;;;;;;;-4.99;98.48;100851.17;105160;1271;61313;-77
2022/01/12 02:41:06;;;;;;;53.70;28.50;;;;;;;-5.01;98.46;100850.94;105210;1271;76402;-78
2022/01/12 02:51:35;;;;;;;52.40;28.70;;;;;;;-4.98;98.66;100856.40;105657;1271;61362;-77
2022/01/12 02:54:03;;;;;;;52.10;28.10;;;;;;;-4.98;98.68;100852.59;105810;1271;76339;-77
2022/01/12 02:56:33;;;;;;;53.00;28.30;;;;;;;-4.97;98.70;100856.42;105412;1271;69020;-78
2022/01/12 02:59:01;;;;;;;60.10;32.70;;;;;;;-4.96;98.75;100852.98;105311;1271;73513;-80
2022/01/12 03:04:04;;;;;;;59.80;31.30;;;;;;;-4.91;98.76;100848.08;105277;1271;61971;-82
2022/01/12 03:06:35;;;;;;;55.30;31.80;;;;;;;-4.91;98.85;100846.70;105315;1271;74180;-77
2022/01/12 03:09:05;;;;;;;56.90;30.10;;;;;;;-4.88;98.72;100848.15;105191;1271;69195;-79
2022/01/12 03:11:32;;;;;;;55.30;29.90;;;;;;;-4.85;98.84;100847.53;105278;1271;73113;-77
2022/01/12 03:13:59;;;;;;;54.30;29.20;;;;;;;-4.82;98.84;100848.31;105261;1271;61377;-76
2022/01/12 03:16:27;;;;;;;56.50;31.00;;;;;;;-4.79;98.85;100843.87;105223;1270;61278;-77
2022/01/12 03:18:59;;;;;;;54.40;30.10;;;;;;;-4.76;98.90;100841.00;105260;1271;76055;-78
2022/01/12 03:21:30;;;;;;;50.60;26.60;;;;;;;-4.72;98.75;100835.88;105237;1271;69004;-76
2022/01/12 03:23:57;;;;;;;47.40;26.70;;;;;;;-4.71;98.63;100835.59;104440;1271;1003596;-77
2022/01/12 03:26:28;;;;;;;51.30;28.00;;;;;;;-4.70;98.76;100835.94;105188;1271;61367;-77
2022/01/12 03:28:56;;;;;;;45.10;26.80;;;;;;;-4.68;98.78;100834.95;105215;1271;62152;-75
2022/01/12 03:31:30;;;;;;;53.70;27.30;;;;;;;-4.67;98.74;100838.97;105199;1271;76378;-77
2022/01/12 03:34:21;;;;;;;45.10;25.00;;;;;;;-4.65;98.71;100836.08;105224;1271;70330;-76
2022/01/12 03:37:17;;;;;;;44.10;27.70;;;;;;;-4.65;98.73;100833.45;105226;1271;73629;-76
2022/01/12 03:39:38;;;;;;;42.90;24.60;;;;;;;-4.65;98.77;100833.99;105165;1271;61328;-77
2022/01/12 03:42:04;;;;;;;46.20;24.60;;;;;;;-4.65;98.66;100833.47;105217;1271;61272;-75
2022/01/12 03:44:31;;;;;;;45.70;25.70;;;;;;;-4.65;98.56;100834.68;105182;1271;75195;-77
2022/01/12 03:46:57;;;;;;;45.40;25.90;;;;;;;-4.67;98.62;100837.76;105282;1271;61357;-77
2022/01/12 03:49:24;;;;;;;42.60;25.30;;;;;;;-4.69;98.57;100835.45;105191;1270;61220;-76
2022/01/12 03:51:51;;;;;;;41.20;23.50;;;;;;;-4.69;98.65;100838.39;105199;1271;61672;-75
2022/01/12 03:54:18;;;;;;;48.00;25.70;;;;;;;-4.72;98.59;100836.58;105212;1271;62235;-76
2022/01/12 03:56:45;;;;;;;54.40;29.90;;;;;;;-4.73;98.79;100833.45;105230;1271;75187;-77
2022/01/12 03:59:12;;;;;;;53.60;32.00;;;;;;;-4.71;98.87;100829.50;105313;1270;69643;-76
2022/01/12 04:01:38;;;;;;;58.40;31.20;;;;;;;-4.68;98.98;100833.23;104906;1271;73197;-77
2022/01/12 04:04:10;;;;;;;45.40;29.40;;;;;;;-4.66;98.97;100834.14;105199;1271;61273;-76
2022/01/12 04:09:22;;;;;;;47.10;24.70;;;;;;;-4.63;98.98;100838.73;105206;1271;75712;-77
2022/01/12 04:11:48;;;;;;;46.00;24.10;;;;;;;-4.61;98.88;100844.31;105202;1271;61487;-76
2022/01/12 04:14:15;;;;;;;42.60;24.20;;;;;;;-4.59;98.72;100847.30;105190;1271;73387;-75
2022/01/12 04:16:41;;;;;;;46.10;24.10;;;;;;;-4.60;98.63;100853.85;105187;1271;61337;-76
2022/01/12 04:19:08;;;;;;;44.70;23.30;;;;;;;-4.60;98.69;100852.14;105217;1271;61356;-78
2022/01/12 04:21:41;;;;;;;44.60;23.60;;;;;;;-4.59;98.71;100852.69;105201;1271;74667;-75
2022/01/12 04:24:09;;;;;;;45.10;24.20;;;;;;;-4.59;98.52;100851.30;105203;1271;67322;-76
2022/01/12 04:26:35;;;;;;;41.70;24.10;;;;;;;-4.60;98.61;100852.67;105213;1271;74388;-76
2022/01/12 04:29:03;;;;;;;45.40;25.10;;;;;;;-4.60;98.72;100851.64;105242;1271;61251;-79
2022/01/12 04:31:29;;;;;;;46.50;25.60;;;;;;;-4.58;98.72;100848.70;105270;1271;61284;-77
2022/01/12 04:33:56;;;;;;;48.80;23.90;;;;;;;-4.57;98.80;100850.66;105219;1271;61236;-77
2022/01/12 04:36:23;;;;;;;45.00;23.70;;;;;;;-4.57;98.72;100842.33;105258;1271;70409;-78
2022/01/12 04:38:49;;;;;;;43.20;24.00;;;;;;;-4.60;98.66;100844.00;105208;1271;72872;-76
2022/01/12 04:41:16;;;;;;;45.20;25.30;;;;;;;-4.60;98.80;100844.69;105183;1271;61351;-75
2022/01/12 04:43:43;;;;;;;43.80;25.20;;;;;;;-4.59;98.70;100848.17;105250;1271;61233;-77
2022/01/12 04:51:20;;;;;;;44.30;22.80;;;;;;;-4.53;98.85;100862.02;104959;1271;74338;-77
2022/01/12 04:53:47;;;;;;;45.70;24.80;;;;;;;-4.55;98.66;100864.93;105245;1271;61276;-76
2022/01/12 04:56:14;;;;;;;45.50;25.60;;;;;;;-4.56;98.48;100867.66;105253;1271;61878;-76
2022/01/12 04:58:41;;;;;;;44.30;25.50;;;;;;;-4.57;98.37;100867.65;104946;1271;76453;-76
2022/01/12 05:01:11;;;;;;;37.00;21.10;;;;;;;-4.56;98.46;100873.39;105240;1271;70391;-76
2022/01/12 05:09:15;;;;;;;28.40;15.50;;;;;;;-4.63;97.47;100878.09;105263;1270;61272;-78
2022/01/12 05:14:36;;;;;;;31.80;16.30;;;;;;;-4.68;97.27;100863.92;105332;1271;69156;-78
2022/01/12 05:17:02;;;;;;;27.40;15.90;;;;;;;-4.69;97.28;100867.02;105322;1271;73249;-74
2022/01/12 05:19:29;;;;;;;29.00;15.40;;;;;;;-4.68;97.35;100869.80;105473;1271;61271;-76
2022/01/12 05:21:56;;;;;;;26.60;15.90;;;;;;;-4.69;97.15;100870.29;105703;1271;61534;-77
2022/01/12 05:24:22;;;;;;;24.80;14.80;;;;;;;-4.69;97.31;100871.33;105263;1271;76264;-78
2022/01/12 05:26:49;;;;;;;22.10;13.80;;;;;;;-4.71;97.05;100874.43;105399;1271;61326;-76
2022/01/12 05:29:15;;;;;;;24.70;15.50;;;;;;;-4.73;97.02;100874.88;105496;1271;61346;-78
2022/01/12 05:31:42;;;;;;;26.00;14.10;;;;;;;-4.74;97.16;100875.36;106168;1271;61180;-77
2022/01/12 05:34:08;;;;;;;29.10;16.30;;;;;;;-4.74;97.22;100877.11;106561;1271;61165;-77
2022/01/12 05:36:35;;;;;;;27.30;16.30;;;;;;;-4.73;97.45;100881.13;106858;1271;75073;-78
2022/01/12 05:39:02;;;;;;;27.80;17.10;;;;;;;-4.73;97.52;100884.08;106762;1271;69111;-78
2022/01/12 05:41:29;;;;;;;25.80;15.70;;;;;;;-4.71;97.48;100885.70;106265;1271;73260;-74
2022/01/12 05:43:57;;;;;;;26.20;15.10;;;;;;;-4.69;97.33;100884.54;105172;1270;61385;-78
2022/01/12 05:46:26;;;;;;;30.70;17.10;;;;;;;-4.68;97.26;100881.25;105269;1271;61275;-76
2022/01/12 05:51:39;;;;;;;28.20;16.30;;;;;;;-4.73;96.99;100892.08;105235;1270;70275;-77
2022/01/12 05:54:06;;;;;;;32.30;17.50;;;;;;;-4.76;96.94;100896.30;104981;1271;73196;-78
2022/01/12 05:56:32;;;;;;;31.00;17.60;;;;;;;-4.80;96.94;100893.77;105228;1271;61331;-77
2022/01/12 05:58:59;;;;;;;29.50;16.30;;;;;;;-4.82;97.04;100898.40;105120;1271;61333;-75
2022/01/12 06:01:27;;;;;;;31.80;17.70;;;;;;;-4.83;97.10;100904.96;105129;1271;61711;-77
2022/01/12 06:03:54;;;;;;;31.00;17.50;;;;;;;-4.81;97.17;100903.79;105052;1271;69105;-75
2022/01/12 06:06:21;;;;;;;38.30;19.60;;;;;;;-4.82;97.29;100904.83;105253;1271;73224;-76
2022/01/12 06:08:47;;;;;;;37.00;19.50;;;;;;;-4.82;97.18;100908.98;105241;1271;61298;-77
2022/01/12 06:11:14;;;;;;;35.90;20.50;;;;;;;-4.82;97.22;100906.89;105254;1271;61346;-78
2022/01/12 06:13:40;;;;;;;36.60;19.90;;;;;;;-4.83;97.23;100911.38;105248;1271;76254;-77
2022/01/12 06:16:07;;;;;;;35.60;17.50;;;;;;;-4.83;97.15;100911.21;105209;1271;61294;-76
2022/01/12 06:18:33;;;;;;;30.70;17.00;;;;;;;-4.85;97.09;100916.37;105241;1271;61378;-75
2022/01/12 06:21:00;;;;;;;40.30;20.80;;;;;;;-4.87;97.12;100917.70;105191;1271;61381;-76
2022/01/12 06:23:26;;;;;;;30.80;17.70;;;;;;;-4.88;97.06;100928.59;105237;1271;61384;-77
2022/01/12 06:25:53;;;;;;;35.50;17.50;;;;;;;-4.91;96.96;100934.42;105209;1271;61348;-78
2022/01/12 06:31:10;;;;;;;31.90;19.40;;;;;;;-4.94;97.12;100929.30;105247;1271;73926;-75
2022/01/12 06:33:38;;;;;;;29.90;16.60;;;;;;;-4.93;97.21;100934.70;105232;1271;61363;-77
2022/01/12 06:36:05;;;;;;;32.10;17.50;;;;;;;-4.92;97.19;100931.95;105214;1271;61819;-75
2022/01/12 06:38:31;;;;;;;35.90;18.90;;;;;;;-4.92;97.07;100926.07;105206;1271;76376;-75
2022/01/12 06:40:58;;;;;;;33.00;19.10;;;;;;;-4.90;97.00;100928.73;105193;1271;69628;-76
2022/01/12 06:43:27;;;;;;;32.10;19.70;;;;;;;-4.89;97.04;100933.77;104959;1271;74849;-76
2022/01/12 06:45:55;;;;;;;29.40;17.30;;;;;;;-4.87;97.11;100936.59;104906;1271;61346;-76
2022/01/12 06:48:22;;;;;;;31.00;18.70;;;;;;;-4.87;96.88;100935.20;105088;1271;62084;-77
2022/01/12 06:50:48;;;;;;;30.60;17.60;;;;;;;-4.87;96.80;100938.30;105173;1271;76086;-77
2022/01/12 06:53:15;;;;;;;29.20;17.60;;;;;;;-4.88;96.83;100943.49;105262;1271;61259;-77
2022/01/12 06:55:41;;;;;;;32.80;17.00;;;;;;;-4.88;96.87;100950.80;105178;1271;73570;-77
2022/01/12 06:58:08;;;;;;;28.90;17.30;;;;;;;-4.86;96.72;100955.02;105212;1270;61393;-75
2022/01/12 07:00:34;;;;;;;28.80;15.30;;;;;;;-4.85;96.76;100964.20;105197;1271;61694;-76
2022/01/12 07:03:01;;;;;;;31.00;17.50;;;;;;;-4.87;96.67;100962.44;105209;1271;76148;-78
2022/01/12 07:05:28;;;;;;;36.90;18.60;;;;;;;-4.87;96.64;100961.39;105186;1271;69733;-74
2022/01/12 07:07:54;;;;;;;31.10;18.60;;;;;;;-4.86;96.75;100960.38;105184;1271;73084;-76
2022/01/12 07:10:21;;;;;;;33.60;18.30;;;;;;;-4.82;96.76;100958.55;105194;1270;61380;-77
2022/01/12 07:12:48;;;;;;;29.50;16.50;;;;;;;-4.81;96.63;100959.11;105180;1271;61229;-77
2022/01/12 07:15:14;;;;;;;29.60;18.70;;;;;;;-4.80;96.70;100957.92;105184;1271;61253;-77
2022/01/12 07:17:41;;;;;;;26.50;16.10;;;;;;;-4.78;96.65;100955.73;105235;1271;61372;-78
2022/01/12 07:20:08;;;;;;;28.50;16.90;;;;;;;-4.78;96.52;100961.63;104466;1271;1005833;-76
2022/01/12 07:22:35;;;;;;;29.20;17.70;;;;;;;-4.79;96.48;100970.96;105207;1271;61311;-76
2022/01/12 07:25:02;;;;;;;29.90;18.10;;;;;;;-4.80;96.56;100973.88;105276;1271;60025;-77
2022/01/12 07:27:30;;;;;;;31.70;19.20;;;;;;;-4.78;96.53;100975.31;105194;1271;76354;-78
2022/01/12 07:29:57;;;;;;;33.90;20.20;;;;;;;-4.77;96.51;100973.80;105245;1271;61256;-77
2022/01/12 07:32:24;;;;;;;29.10;17.30;;;;;;;-4.75;96.55;100967.09;105222;1271;72902;-78
2022/01/12 07:34:51;;;;;;;26.80;16.70;;;;;;;-4.70;96.55;100963.91;105224;1271;61338;-78
2022/01/12 07:37:19;;;;;;;27.00;16.40;;;;;;;-4.65;96.42;100961.79;105242;1271;61576;-76
2022/01/12 07:39:45;;;;;;;27.70;16.40;;;;;;;-4.61;96.23;100971.06;106011;1271;76139;-77
2022/01/12 07:42:12;;;;;;;30.40;17.20;;;;;;;-4.62;96.15;100981.81;106102;1271;61264;-76
2022/01/12 07:44:39;;;;;;;30.50;19.50;;;;;;;-4.62;96.10;100975.75;105693;1271;61280;-76
2022/01/12 07:47:06;;;;;;;29.30;17.70;;;;;;;-4.60;96.26;100967.98;105292;1271;61325;-76
2022/01/12 07:49:34;;;;;;;28.30;18.10;;;;;;;-4.55;96.08;100967.79;105292;1271;61231;-76
2022/01/12 07:52:01;;;;;;;31.10;19.60;;;;;;;-4.52;96.07;100965.59;105274;1271;75169;-78
2022/01/12 07:54:27;;;;;;;41.00;26.10;;;;;;;-4.47;96.03;100965.02;105211;1271;70167;-77
2022/01/12 07:56:54;;;;;;;37.10;24.80;;;;;;;-4.42;95.99;100964.13;105180;1271;74451;-77
2022/01/12 07:59:21;;;;;;;41.70;23.60;;;;;;;-4.35;96.09;100972.10;105195;1271;61314;-77
2022/01/12 08:01:47;;;;;;;43.70;26.00;;;;;;;-4.34;95.81;100974.75;105226;1271;61179;-78
2022/01/12 08:04:14;;;;;;;32.80;22.30;;;;;;;-4.32;95.79;100982.59;105212;1271;76308;-77
2022/01/12 08:06:41;;;;;;;34.40;21.10;;;;;;;-4.31;95.81;100990.06;105198;1271;69224;-77
2022/01/12 08:09:07;;;;;;;30.20;18.70;;;;;;;-4.31;95.88;100991.97;105260;1271;73358;-76
2022/01/12 08:11:34;;;;;;;29.30;18.30;;;;;;;-4.26;95.85;100991.77;104856;1274;61548;-77
2022/01/12 08:14:00;;;;;;;31.40;17.70;;;;;;;-4.22;95.71;100983.01;105232;1271;62828;-77
2022/01/12 08:16:27;;;;;;;29.80;18.30;;;;;;;-4.16;95.71;100980.55;105250;1271;75671;-78
2022/01/12 08:18:55;;;;;;;27.70;16.60;;;;;;;-4.08;95.59;100983.02;105225;1271;61350;-76
2022/01/12 08:21:24;;;;;;;31.00;18.30;;;;;;;-3.98;95.60;100988.46;105258;1271;73185;-75
2022/01/12 08:23:50;;;;;;;29.80;17.80;;;;;;;-3.92;95.35;100986.16;105206;1271;61397;-77
2022/01/12 08:26:17;;;;;;;27.10;16.90;;;;;;;-3.89;95.07;100986.08;105235;1271;61554;-78
2022/01/12 08:28:43;;;;;;;27.80;17.90;;;;;;;-3.84;95.13;100989.33;104977;1271;61352;-75
2022/01/12 08:31:10;;;;;;;28.80;17.70;;;;;;;-3.76;95.07;100993.67;105274;1271;69557;-75
2022/01/12 08:33:37;;;;;;;26.10;16.40;;;;;;;-3.69;94.66;100991.05;105290;1271;72551;-75
2022/01/12 08:36:04;;;;;;;29.00;17.40;;;;;;;-3.65;94.35;100997.05;105264;1271;61269;-77
2022/01/12 08:38:31;;;;;;;27.40;16.50;;;;;;;-3.61;94.33;100996.11;105340;1271;61273;-79
2022/01/12 08:40:57;;;;;;;27.80;17.40;;;;;;;-3.54;94.24;100999.04;105212;1271;76143;-78
2022/01/12 08:43:24;;;;;;;32.20;19.90;;;;;;;-3.50;94.26;101003.81;105242;1271;69324;-77
2022/01/12 08:45:53;;;;;;;31.60;18.80;;;;;;;-3.43;94.23;101002.58;105247;1271;73602;-76
2022/01/12 08:48:21;;;;;;;30.10;19.00;;;;;;;-3.34;94.14;101004.88;105255;1271;61301;-78
2022/01/12 08:50:48;;;;;;;29.00;17.70;;;;;;;-3.26;94.06;101008.33;105260;1271;61269;-77
2022/01/12 08:53:15;;;;;;;31.90;20.40;;;;;;;-3.20;94.17;101001.68;105252;1271;76678;-78
2022/01/12 08:55:42;;;;;;;38.60;28.00;;;;;;;-3.13;94.06;101001.48;105255;1271;69352;-77
2022/01/12 08:58:09;;;;;;;31.30;21.90;;;;;;;-3.03;93.94;101000.65;105248;1271;73716;-78
2022/01/12 09:00:36;;;;;;;28.80;20.80;;;;;;;-2.95;93.45;100998.73;105248;1271;61380;-79
2022/01/12 09:03:02;;;;;;;29.10;19.20;;;;;;;-2.89;93.38;100997.48;105235;1271;61253;-79
2022/01/12 09:05:29;;;;;;;33.40;18.40;;;;;;;-2.84;93.21;100996.86;105252;1271;76561;-78
2022/01/12 09:07:56;;;;;;;31.40;17.60;;;;;;;-2.80;92.90;101005.80;105243;1271;68416;-77
2022/01/12 09:10:22;;;;;;;25.20;15.20;;;;;;;-2.80;92.54;100999.73;104977;1271;74289;-78
2022/01/12 09:12:49;;;;;;;19.00;12.20;;;;;;;-2.78;91.70;101003.39;105250;1271;62055;-76
2022/01/12 09:15:16;;;;;;;19.80;11.70;;;;;;;-2.76;90.74;101000.52;105282;1271;62570;-77
2022/01/12 09:17:43;;;;;;;21.80;12.40;;;;;;;-2.74;90.22;101005.92;104504;1271;1005087;-75
2022/01/12 09:20:10;;;;;;;20.60;12.20;;;;;;;-2.73;89.81;101002.82;105303;1271;69737;-78
2022/01/12 09:22:38;;;;;;;17.90;12.60;;;;;;;-2.76;89.37;101000.85;105262;1271;73479;-77
2022/01/12 09:25:06;;;;;;;19.00;12.40;;;;;;;-2.78;88.81;101001.48;105288;1271;61253;-78
2022/01/12 09:27:33;;;;;;;17.40;11.70;;;;;;;-2.82;88.00;100993.75;105299;1270;61416;-78
2022/01/12 09:29:59;;;;;;;18.80;11.90;;;;;;;-2.88;88.15;100989.81;104968;1271;76232;-73
2022/01/12 09:32:26;;;;;;;20.50;12.50;;;;;;;-2.86;88.33;100985.68;105258;1271;61265;-77
2022/01/12 09:34:52;;;;;;;21.80;13.40;;;;;;;-2.79;88.61;100979.38;105221;1271;61355;-77
2022/01/12 09:37:21;;;;;;;22.90;14.10;;;;;;;-2.71;88.45;100971.89;105257;1271;61403;-77
2022/01/12 09:39:48;;;;;;;21.40;14.00;;;;;;;-2.65;88.40;100962.25;105256;1271;61271;-79
2022/01/12 09:42:16;;;;;;;21.50;13.60;;;;;;;-2.63;88.13;100958.98;105230;1271;75063;-76
2022/01/12 09:44:46;;;;;;;22.40;15.00;;;;;;;-2.66;88.05;100959.11;105005;1271;68139;-77
2022/01/12 09:47:13;;;;;;;24.00;14.50;;;;;;;-2.71;88.10;100953.08;105238;1271;73176;-75
2022/01/12 09:49:42;;;;;;;22.80;14.70;;;;;;;-2.79;87.78;100954.67;105200;1271;61310;-77
2022/01/12 09:52:09;;;;;;;21.00;15.10;;;;;;;-2.95;87.31;100952.31;105204;1271;61342;-76
2022/01/12 09:54:36;;;;;;;23.00;13.90;;;;;;;-3.06;87.21;100945.63;105270;1271;76279;-77
2022/01/12 09:57:05;;;;;;;23.50;15.00;;;;;;;-3.20;86.92;100948.67;105243;1271;69091;-77
2022/01/12 09:59:32;;;;;;;24.70;15.00;;;;;;;-3.35;86.18;100947.14;105223;1271;73562;-77
2022/01/12 10:01:59;;;;;;;23.00;14.20;;;;;;;-3.49;86.18;100942.84;105212;1271;61253;-76
2022/01/12 10:04:28;;;;;;;26.70;15.60;;;;;;;-3.59;86.06;100945.73;105223;1271;61377;-75
2022/01/12 10:07:04;;;;;;;22.90;15.60;;;;;;;-3.62;86.64;100947.95;105220;1271;75108;-75
2022/01/12 10:09:43;;;;;;;24.20;14.50;;;;;;;-3.60;86.73;100955.83;105387;1271;70126;-78
2022/01/12 10:12:16;;;;;;;23.20;15.50;;;;;;;-3.59;86.43;100964.34;105110;1271;73258;-77
2022/01/12 10:14:46;;;;;;;21.40;14.20;;;;;;;-3.60;86.35;100964.16;105303;1271;61387;-78
2022/01/12 10:17:14;;;;;;;24.20;14.70;;;;;;;-3.63;86.01;100963.58;105235;1271;61185;-76
2022/01/12 10:19:41;;;;;;;24.70;15.00;;;;;;;-3.65;85.97;100957.81;105244;1271;75250;-78
2022/01/12 10:22:11;;;;;;;22.60;14.90;;;;;;;-3.62;86.08;100956.81;105291;1271;69199;-78
2022/01/12 10:24:38;;;;;;;;;;;;;;;-3.53;86.02;100951.62;105416;1271;71450;-80
2022/01/12 10:27:16;;;;;;;20.90;13.00;;;;;;;-3.50;85.69;100955.87;105254;1270;61361;-79
2022/01/12 10:29:45;;;;;;;19.70;13.80;;;;;;;-3.38;85.65;100953.85;105203;1270;61316;-77
2022/01/12 10:32:17;;;;;;;23.60;14.80;;;;;;;-3.29;85.69;100953.19;105258;1271;75266;-76
2022/01/12 10:34:46;;;;;;;26.10;15.30;;;;;;;-3.16;85.72;100947.88;105057;1271;69465;-78
2022/01/12 10:37:15;;;;;;;21.70;13.50;;;;;;;-3.01;85.37;100939.48;105442;1270;73174;-76
2022/01/12 10:39:48;;;;;;;22.60;14.40;;;;;;;-2.86;85.11;100934.91;105188;1271;61274;-77
2022/01/12 10:42:20;;;;;;;25.20;16.30;;;;;;;-2.61;85.12;100930.64;105388;1271;61347;-79
2022/01/12 10:44:50;;;;;;;25.20;15.10;;;;;;;-2.31;85.11;100918.45;105250;1271;75355;-76
2022/01/12 10:47:27;;;;;;;27.10;17.70;;;;;;;-2.04;84.77;100916.62;105015;1271;69378;-78
2022/01/12 10:49:54;;;;;;;25.60;17.00;;;;;;;-1.78;84.45;100918.39;105347;1271;72627;-76
2022/01/12 10:52:25;;;;;;;25.50;16.20;;;;;;;-1.74;83.92;100918.27;105215;1271;61253;-76
2022/01/12 10:55:13;;;;;;;24.20;15.70;;;;;;;-1.73;83.93;100917.59;104944;1272;61337;-78
2022/01/12 10:57:45;;;;;;;22.00;14.80;;;;;;;-1.74;83.92;100919.84;105195;1271;76344;-78
2022/01/12 11:00:18;;;;;;;25.10;16.30;;;;;;;-1.63;84.12;100918.25;105208;1271;69452;-77
2022/01/12 11:02:53;;;;;;;20.70;14.40;;;;;;;-1.45;83.80;100916.38;105201;1271;72925;-76
2022/01/12 11:05:21;;;;;;;23.10;14.50;;;;;;;-1.24;82.95;100903.40;105201;1271;61289;-75
2022/01/12 11:07:50;;;;;;;21.80;14.10;;;;;;;-1.10;82.50;100891.86;105272;1271;61367;-76
2022/01/12 11:10:19;;;;;;;22.70;14.30;;;;;;;-0.95;82.66;100902.69;105213;1271;75589;-76
2022/01/12 11:12:48;;;;;;;22.20;15.10;;;;;;;-0.84;82.21;100905.59;104982;1271;67319;-77
2022/01/12 11:15:18;;;;;;;22.50;15.00;;;;;;;-0.82;81.90;100905.27;105285;1271;74218;-75
2022/01/12 11:17:47;;;;;;;21.80;15.20;;;;;;;-0.79;81.86;100906.68;105205;1274;61326;-75
2022/01/12 11:20:23;;;;;;;24.70;14.50;;;;;;;-0.82;81.61;100907.70;105265;1271;61285;-77
2022/01/12 11:23:03;;;;;;;24.60;16.10;;;;;;;-0.85;81.34;100895.63;105025;1271;74698;-75
2022/01/12 11:25:37;;;;;;;22.20;14.40;;;;;;;-0.95;81.10;100894.14;105299;1271;69342;-78
2022/01/12 11:28:10;;;;;;;23.70;14.90;;;;;;;-1.04;80.90;100901.53;105237;1271;74425;-77
2022/01/12 11:30:50;;;;;;;25.90;14.40;;;;;;;-1.19;80.51;100895.27;105266;1271;61333;-77
2022/01/12 11:33:19;;;;;;;23.60;14.40;;;;;;;-1.38;80.16;100894.16;105268;1271;61157;-78
2022/01/12 11:35:52;;;;;;;20.80;14.80;;;;;;;-1.51;80.13;100891.58;105400;1271;75307;-77
2022/01/12 11:38:28;;;;;;;22.60;14.20;;;;;;;-1.63;80.06;100892.10;105429;1271;69070;-75
2022/01/12 11:41:14;;;;;;;23.10;15.10;;;;;;;-1.71;80.29;100882.94;105273;1271;74115;-78
2022/01/12 11:43:46;;;;;;;25.20;15.10;;;;;;;-1.69;80.63;100873.23;105278;1271;61271;-76
2022/01/12 11:46:25;;;;;;;27.00;17.00;;;;;;;-1.63;80.95;100875.38;105203;1270;62028;-78
2022/01/12 11:48:59;;;;;;;25.50;16.30;;;;;;;-1.59;81.03;100878.04;105336;1271;75360;-76
2022/01/12 11:51:37;;;;;;;26.50;16.90;;;;;;;-1.56;81.24;100876.16;105273;1271;70259;-74
2022/01/12 11:54:09;;;;;;;34.50;17.60;;;;;;;-1.56;81.02;100885.58;105452;1271;73146;-77
2022/01/12 11:56:38;;;;;;;24.20;15.80;;;;;;;-1.62;80.98;100893.88;105294;1271;61157;-77
2022/01/12 11:59:13;;;;;;;24.70;15.80;;;;;;;-1.69;80.86;100895.52;105267;1271;62259;-80
2022/01/12 12:01:46;;;;;;;25.00;15.90;;;;;;;-1.74;80.89;100896.48;105267;1270;76735;-76
2022/01/12 12:04:28;;;;;;;25.90;16.90;;;;;;;-1.78;80.27;100893.47;105123;1271;70540;-77
2022/01/12 12:07:07;;;;;;;31.90;17.10;;;;;;;-1.90;80.40;100894.88;105219;1271;73654;-77
2022/01/12 12:09:48;;;;;;;26.20;15.50;;;;;;;-1.94;80.71;100895.52;105256;1271;61442;-76
2022/01/12 12:12:17;;;;;;;24.50;14.00;;;;;;;-1.93;80.67;100889.43;105240;1271;61192;-77
2022/01/12 12:14:47;;;;;;;23.90;14.70;;;;;;;-1.91;80.87;100888.77;105260;1271;76450;-76
2022/01/12 12:17:15;;;;;;;19.20;13.90;;;;;;;-1.90;80.80;100889.11;105343;1271;70155;-74
2022/01/12 12:19:42;;;;;;;31.90;19.00;;;;;;;-1.92;80.84;100891.71;105345;1271;73903;-78
2022/01/12 12:22:12;;;;;;;25.00;15.20;;;;;;;-1.92;81.12;100889.09;105331;1271;61218;-78
2022/01/12 12:24:40;;;;;;;25.40;14.80;;;;;;;-1.87;81.23;100890.59;105373;1270;61179;-78
2022/01/12 12:27:09;;;;;;;30.40;15.80;;;;;;;-1.82;80.98;100885.59;105241;1271;75979;-77